Teretulemast minu uuele ilmaprognooside lehele
Praegu on leht veel arendamise järgus: tõlked, linnade lisamine, menüüde korrastamine jne.
Endine leht vt. menüüs! / Andke teada probleemidest(nt. koha valik - kas töötab jne.) menüüs: Muu kraam - Saada kiri.



Tuul Alates: 30-11-2021 23:24 Kuni: 01-12-2021 23:24 hoiatus: Tuul Tase: Kollane info button
põhja- ja loodetuul 13, puhanguti 18 m/s.north, northwest wind 13, in gusts up to 18 m/s. 
/home/edgarnuum/domains/hotserv.eq.ee/public_html/nautical/weatherpro/metar/metarDisplay.php

Nearby METAR Reports

   
EEKE - Kuressaare, Estonia
Distance from station: SE 3 km
Uuendatud: 01-12-2021 01:50
Overcast  
Overcast  
   Tuul: North 5.7 m/s
Tuul: North 5.7 m/s
Temperatuur: -1°C
Wind Chill: -7°C
Kastepunkt: -6°C
Niiskus: 69%
Baromeeter: 989 hPa
Pilvisus: Overcast
Nähtavus: 10 km
Cloud details: Few Clouds 1127.8 m,
Mostly Cloudy 1280.2 m,
Overcast 1463 m
EEKE 302350Z AUTO 35011KT 300V010 9999NDV FEW037 BKN042 OVC048 M01/M06 Q0989
EEKA - Kardla, Estonia
Distance from station: NNE 84 km
Uuendatud: 30-11-2021 18:20
NOT Current
Mostly Cloudy  
Mostly Cloudy  
   Tuul: NNW 11.3 m/s
Tuul: NNW 11.3 m/s
Temperatuur: -3°C
Wind Chill: -12°C
Kastepunkt: -6°C
Niiskus: 80%
Baromeeter: 986 hPa
Pilvisus: Mostly Cloudy
Nähtavus: More than 10 km
Cloud details: Mostly Cloudy 579.1 m
EEKA 301620Z 33022KT 9999 BKN019 M03/M06 Q0986
EEEI - Harjumaa Amari, Estonia
Distance from station: NE 151 km
Uuendatud: 01-12-2021 00:36
NOT Current
Mostly Cloudy  
Mostly Cloudy  
   Tuul: NNW 6.7 m/s
Tuul: NNW 6.7 m/s
Temperatuur: -6°C
Wind Chill: -13°C
Kastepunkt: -8°C
Niiskus: 86%
Baromeeter: 986 hPa
Pilvisus: Mostly Cloudy
Nähtavus: More than 10 km
Cloud details: Mostly Cloudy 365.8 m,
Mostly Cloudy 426.7 m
EEEI 302236Z AUTO 33013KT 9999 BKN012/// BKN014/// M06/M08 Q0986
EETN - Tallinn L. Meri, Estonia
Distance from station: NE 187 km
Uuendatud: 01-12-2021 01:50
Light Snow, Low Drifting, Lumi, Overcast  
Light Snow, Low Drifting, Lumi, Overcast  
   Tuul: NW 8.2 m/s
Tuul: NW 8.2 m/s
Temperatuur: -7°C
Wind Chill: -16°C
Kastepunkt: -9°C
Niiskus: 86%
Baromeeter: 985 hPa
Pilvisus: Overcast
Nähtavus: More than 10 km
Cloud details: Overcast 243.8 m
EETN 302350Z 32016KT 9999 -SN DRSN OVC008 M07/M09 Q0985
EETU - Tartu, Estonia
Distance from station: E 245 km
Uuendatud: 01-12-2021 01:50
Light Snow, Overcast  
Light Snow, Overcast  
   Tuul: West 6.7 m/s
Tuul: West 6.7 m/s
Temperatuur: -7°C
Wind Chill: -15°C
Kastepunkt: -10°C
Niiskus: 79%
Baromeeter: 984 hPa
Pilvisus: Overcast
Nähtavus: More than 10 km
Cloud details: Few Clouds 396.2 m,
Overcast 548.6 m
EETU 302350Z AUTO 28013KT 9999 -SN FEW013/// OVC018/// M07/M10 Q0984
 

Script developed by  Saratoga-weather.org Adapted for the template by  Weerstation Leuven